KEQY

Charlotte-Monroe Executive Airport

Monroe, North Carolina, USA
METAR KEQY 261253Z AUTO 20005KT 8SM OVC009 22/22 A3000 RMK AO2 CIG 007V011 SLP158 T02220217
Observed Flight Rules
May-26 @ 12:53 UTC (49 minutes ago) Instrument Flight Rules
Wind Visibility Clouds
200° at 5 knots 8 miles
  • Overcast at 900' AGL
Temperatures Readings
Current 22°C / 72°F
Dewpoint 22°C / 72°F
Humidity 100%
Altimeter 30" Hg
Pressure 1015.8 hPa
Elevation 212
METAR KEQY 261253Z AUTO 20005KT 8SM OVC009 22/22 A3000 RMK AO2 CIG 007V011 SLP158 T02220217
Observed Flight Rules
May-26 @ 12:53 UTC
(49 minutes ago)
IFR
Wind Visibility
200° at 5 knots 8 miles
Clouds
  • Overcast at 900' AGL
Temperature Dewpoint
22°C / 72°F 22°C / 72°F
Humidity Altimeter Pressure
100% 30" Hg 1015.8 hPa